sensor_id;sensor_type;location;lat;lon;timestamp;P1;durP1;ratioP1;P2;durP2;ratioP2
4704;SDS011;2366;51.332;6.610;2023-04-25T00:01:21;7.90;;;4.27;;
4704;SDS011;2366;51.332;6.610;2023-04-25T00:03:47;6.47;;;3.83;;
4704;SDS011;2366;51.332;6.610;2023-04-25T00:06:12;8.63;;;3.43;;
4704;SDS011;2366;51.332;6.610;2023-04-25T00:08:38;15.00;;;4.33;;
4704;SDS011;2366;51.332;6.610;2023-04-25T00:11:03;6.77;;;3.87;;
4704;SDS011;2366;51.332;6.610;2023-04-25T00:13:29;6.10;;;3.00;;
4704;SDS011;2366;51.332;6.610;2023-04-25T00:15:55;17.30;;;3.83;;
4704;SDS011;2366;51.332;6.610;2023-04-25T00:18:21;12.68;;;3.58;;
4704;SDS011;2366;51.332;6.610;2023-04-25T00:20:47;8.30;;;3.88;;
4704;SDS011;2366;51.332;6.610;2023-04-25T00:23:13;7.20;;;3.60;;
4704;SDS011;2366;51.332;6.610;2023-04-25T00:25:45;4.45;;;3.05;;
4704;SDS011;2366;51.332;6.610;2023-04-25T00:28:12;11.73;;;3.30;;
4704;SDS011;2366;51.332;6.610;2023-04-25T00:30:38;7.53;;;3.97;;
4704;SDS011;2366;51.332;6.610;2023-04-25T00:33:04;3.47;;;2.85;;
4704;SDS011;2366;51.332;6.610;2023-04-25T00:35:29;10.03;;;3.50;;
4704;SDS011;2366;51.332;6.610;2023-04-25T00:37:55;7.17;;;3.97;;
4704;SDS011;2366;51.332;6.610;2023-04-25T00:40:20;6.73;;;3.43;;
4704;SDS011;2366;51.332;6.610;2023-04-25T00:42:46;9.10;;;3.47;;
4704;SDS011;2366;51.332;6.610;2023-04-25T00:45:13;14.73;;;4.07;;
4704;SDS011;2366;51.332;6.610;2023-04-25T00:47:42;9.52;;;3.67;;
4704;SDS011;2366;51.332;6.610;2023-04-25T00:50:09;6.43;;;3.20;;
4704;SDS011;2366;51.332;6.610;2023-04-25T00:52:35;8.77;;;4.25;;
4704;SDS011;2366;51.332;6.610;2023-04-25T00:55:02;5.78;;;3.10;;
4704;SDS011;2366;51.332;6.610;2023-04-25T00:57:28;6.20;;;2.80;;
4704;SDS011;2366;51.332;6.610;2023-04-25T00:59:54;7.37;;;3.60;;
4704;SDS011;2366;51.332;6.610;2023-04-25T01:02:20;6.18;;;3.05;;
4704;SDS011;2366;51.332;6.610;2023-04-25T01:04:47;7.73;;;4.23;;
4704;SDS011;2366;51.332;6.610;2023-04-25T01:07:13;16.38;;;4.45;;
4704;SDS011;2366;51.332;6.610;2023-04-25T01:09:39;6.20;;;2.80;;
4704;SDS011;2366;51.332;6.610;2023-04-25T01:12:04;9.27;;;3.87;;
4704;SDS011;2366;51.332;6.610;2023-04-25T01:14:30;9.90;;;5.13;;
4704;SDS011;2366;51.332;6.610;2023-04-25T01:16:56;11.87;;;3.90;;
4704;SDS011;2366;51.332;6.610;2023-04-25T01:19:22;11.25;;;3.53;;
4704;SDS011;2366;51.332;6.610;2023-04-25T01:21:48;12.15;;;4.82;;
4704;SDS011;2366;51.332;6.610;2023-04-25T01:24:13;14.33;;;4.27;;
4704;SDS011;2366;51.332;6.610;2023-04-25T01:26:39;7.67;;;4.43;;
4704;SDS011;2366;51.332;6.610;2023-04-25T01:29:09;12.18;;;4.20;;
4704;SDS011;2366;51.332;6.610;2023-04-25T01:31:35;18.60;;;3.70;;
4704;SDS011;2366;51.332;6.610;2023-04-25T01:34:01;6.07;;;3.28;;
4704;SDS011;2366;51.332;6.610;2023-04-25T01:36:27;7.77;;;4.30;;
4704;SDS011;2366;51.332;6.610;2023-04-25T01:38:53;22.92;;;5.55;;
4704;SDS011;2366;51.332;6.610;2023-04-25T01:41:18;7.87;;;3.23;;
4704;SDS011;2366;51.332;6.610;2023-04-25T01:43:44;9.93;;;3.80;;
4704;SDS011;2366;51.332;6.610;2023-04-25T01:46:10;5.88;;;4.20;;
4704;SDS011;2366;51.332;6.610;2023-04-25T01:48:36;4.90;;;3.22;;
4704;SDS011;2366;51.332;6.610;2023-04-25T01:51:02;3.73;;;2.90;;
4704;SDS011;2366;51.332;6.610;2023-04-25T01:53:27;11.07;;;2.93;;
4704;SDS011;2366;51.332;6.610;2023-04-25T01:55:53;5.77;;;3.30;;
4704;SDS011;2366;51.332;6.610;2023-04-25T01:58:18;8.00;;;2.93;;
4704;SDS011;2366;51.332;6.610;2023-04-25T02:00:44;4.53;;;2.53;;
4704;SDS011;2366;51.332;6.610;2023-04-25T02:03:09;7.90;;;3.40;;
4704;SDS011;2366;51.332;6.610;2023-04-25T02:05:38;4.93;;;2.73;;
4704;SDS011;2366;51.332;6.610;2023-04-25T02:08:04;9.23;;;3.00;;
4704;SDS011;2366;51.332;6.610;2023-04-25T02:10:31;9.75;;;2.58;;
4704;SDS011;2366;51.332;6.610;2023-04-25T02:12:57;8.03;;;2.77;;
4704;SDS011;2366;51.332;6.610;2023-04-25T02:15:22;9.90;;;3.50;;
4704;SDS011;2366;51.332;6.610;2023-04-25T02:17:48;6.67;;;2.57;;
4704;SDS011;2366;51.332;6.610;2023-04-25T02:20:13;8.43;;;3.63;;
4704;SDS011;2366;51.332;6.610;2023-04-25T02:22:40;5.45;;;3.05;;
4704;SDS011;2366;51.332;6.610;2023-04-25T02:25:07;8.45;;;3.10;;
4704;SDS011;2366;51.332;6.610;2023-04-25T02:27:32;8.70;;;3.13;;
4704;SDS011;2366;51.332;6.610;2023-04-25T02:29:58;4.57;;;3.60;;
4704;SDS011;2366;51.332;6.610;2023-04-25T02:32:23;6.03;;;3.47;;
4704;SDS011;2366;51.332;6.610;2023-04-25T02:34:48;5.97;;;2.60;;
4704;SDS011;2366;51.332;6.610;2023-04-25T02:37:14;13.43;;;4.03;;
4704;SDS011;2366;51.332;6.610;2023-04-25T02:39:39;4.90;;;3.80;;
4704;SDS011;2366;51.332;6.610;2023-04-25T02:42:05;7.87;;;3.77;;
4704;SDS011;2366;51.332;6.610;2023-04-25T02:44:30;8.93;;;3.30;;
4704;SDS011;2366;51.332;6.610;2023-04-25T02:46:55;13.00;;;3.50;;
4704;SDS011;2366;51.332;6.610;2023-04-25T02:49:21;11.90;;;4.43;;
4704;SDS011;2366;51.332;6.610;2023-04-25T02:51:46;7.50;;;4.43;;
4704;SDS011;2366;51.332;6.610;2023-04-25T02:54:12;5.63;;;3.30;;
4704;SDS011;2366;51.332;6.610;2023-04-25T02:56:37;6.73;;;3.83;;
4704;SDS011;2366;51.332;6.610;2023-04-25T02:59:02;11.23;;;4.33;;
4704;SDS011;2366;51.332;6.610;2023-04-25T03:01:28;13.83;;;4.20;;
4704;SDS011;2366;51.332;6.610;2023-04-25T03:03:53;15.40;;;4.53;;
4704;SDS011;2366;51.332;6.610;2023-04-25T03:06:18;14.00;;;4.17;;
4704;SDS011;2366;51.332;6.610;2023-04-25T03:08:44;8.00;;;3.27;;
4704;SDS011;2366;51.332;6.610;2023-04-25T03:11:09;24.97;;;4.87;;
4704;SDS011;2366;51.332;6.610;2023-04-25T03:13:35;12.73;;;4.90;;
4704;SDS011;2366;51.332;6.610;2023-04-25T03:16:01;7.83;;;3.70;;
4704;SDS011;2366;51.332;6.610;2023-04-25T03:18:26;8.40;;;3.57;;
4704;SDS011;2366;51.332;6.610;2023-04-25T03:20:51;10.83;;;4.10;;
4704;SDS011;2366;51.332;6.610;2023-04-25T03:23:17;12.43;;;4.37;;
4704;SDS011;2366;51.332;6.610;2023-04-25T03:25:42;12.90;;;5.80;;
4704;SDS011;2366;51.332;6.610;2023-04-25T03:28:07;9.83;;;4.43;;
4704;SDS011;2366;51.332;6.610;2023-04-25T03:30:33;19.40;;;4.60;;
4704;SDS011;2366;51.332;6.610;2023-04-25T03:32:58;11.27;;;4.23;;
4704;SDS011;2366;51.332;6.610;2023-04-25T03:35:24;11.37;;;4.47;;
4704;SDS011;2366;51.332;6.610;2023-04-25T03:37:49;28.23;;;5.93;;
4704;SDS011;2366;51.332;6.610;2023-04-25T03:40:15;19.33;;;4.60;;
4704;SDS011;2366;51.332;6.610;2023-04-25T03:42:40;6.10;;;4.20;;
4704;SDS011;2366;51.332;6.610;2023-04-25T03:45:06;19.53;;;5.97;;
4704;SDS011;2366;51.332;6.610;2023-04-25T03:47:33;10.70;;;5.57;;
4704;SDS011;2366;51.332;6.610;2023-04-25T03:49:58;10.03;;;4.60;;
4704;SDS011;2366;51.332;6.610;2023-04-25T03:52:25;13.43;;;4.22;;
4704;SDS011;2366;51.332;6.610;2023-04-25T03:54:50;7.70;;;4.93;;
4704;SDS011;2366;51.332;6.610;2023-04-25T03:57:16;9.80;;;4.30;;
4704;SDS011;2366;51.332;6.610;2023-04-25T03:59:41;12.13;;;4.37;;
4704;SDS011;2366;51.332;6.610;2023-04-25T04:02:07;20.83;;;5.10;;
4704;SDS011;2366;51.332;6.610;2023-04-25T04:04:32;12.23;;;3.90;;
4704;SDS011;2366;51.332;6.610;2023-04-25T04:06:57;8.50;;;3.80;;
4704;SDS011;2366;51.332;6.610;2023-04-25T04:09:23;17.70;;;4.50;;
4704;SDS011;2366;51.332;6.610;2023-04-25T04:11:48;6.87;;;2.97;;
4704;SDS011;2366;51.332;6.610;2023-04-25T04:14:14;11.93;;;4.33;;
4704;SDS011;2366;51.332;6.610;2023-04-25T04:16:39;12.83;;;4.07;;
4704;SDS011;2366;51.332;6.610;2023-04-25T04:19:04;14.30;;;5.07;;
4704;SDS011;2366;51.332;6.610;2023-04-25T04:21:30;12.53;;;3.83;;
4704;SDS011;2366;51.332;6.610;2023-04-25T04:23:56;17.77;;;3.55;;
4704;SDS011;2366;51.332;6.610;2023-04-25T04:26:22;20.60;;;4.40;;
4704;SDS011;2366;51.332;6.610;2023-04-25T04:28:49;16.23;;;5.40;;
4704;SDS011;2366;51.332;6.610;2023-04-25T04:31:19;19.42;;;5.82;;
4704;SDS011;2366;51.332;6.610;2023-04-25T04:33:45;6.95;;;3.72;;
4704;SDS011;2366;51.332;6.610;2023-04-25T04:36:11;12.90;;;5.17;;
4704;SDS011;2366;51.332;6.610;2023-04-25T04:38:36;7.80;;;4.30;;
4704;SDS011;2366;51.332;6.610;2023-04-25T04:41:02;16.47;;;4.17;;
4704;SDS011;2366;51.332;6.610;2023-04-25T04:43:28;11.48;;;4.97;;
4704;SDS011;2366;51.332;6.610;2023-04-25T04:45:54;13.77;;;4.30;;
4704;SDS011;2366;51.332;6.610;2023-04-25T04:48:21;19.67;;;4.80;;
4704;SDS011;2366;51.332;6.610;2023-04-25T04:50:46;8.80;;;4.73;;
4704;SDS011;2366;51.332;6.610;2023-04-25T04:53:12;10.07;;;4.47;;
4704;SDS011;2366;51.332;6.610;2023-04-25T04:55:38;11.53;;;4.20;;
4704;SDS011;2366;51.332;6.610;2023-04-25T04:58:06;9.80;;;4.15;;
4704;SDS011;2366;51.332;6.610;2023-04-25T05:00:31;8.30;;;4.37;;
4704;SDS011;2366;51.332;6.610;2023-04-25T05:02:57;12.85;;;4.65;;
4704;SDS011;2366;51.332;6.610;2023-04-25T05:05:23;7.40;;;3.67;;
4704;SDS011;2366;51.332;6.610;2023-04-25T05:07:48;10.20;;;4.23;;
4704;SDS011;2366;51.332;6.610;2023-04-25T05:10:13;20.47;;;3.60;;
4704;SDS011;2366;51.332;6.610;2023-04-25T05:12:40;10.80;;;4.43;;
4704;SDS011;2366;51.332;6.610;2023-04-25T05:15:05;9.10;;;4.30;;
4704;SDS011;2366;51.332;6.610;2023-04-25T05:17:31;14.80;;;5.07;;
4704;SDS011;2366;51.332;6.610;2023-04-25T05:19:57;18.25;;;3.92;;
4704;SDS011;2366;51.332;6.610;2023-04-25T05:22:23;15.97;;;4.13;;
4704;SDS011;2366;51.332;6.610;2023-04-25T05:24:48;13.93;;;3.73;;
4704;SDS011;2366;51.332;6.610;2023-04-25T05:27:16;19.00;;;4.03;;
4704;SDS011;2366;51.332;6.610;2023-04-25T05:29:42;11.10;;;3.47;;
4704;SDS011;2366;51.332;6.610;2023-04-25T05:32:07;12.23;;;3.60;;
4704;SDS011;2366;51.332;6.610;2023-04-25T05:34:34;9.65;;;3.85;;
4704;SDS011;2366;51.332;6.610;2023-04-25T05:36:59;11.77;;;3.60;;
4704;SDS011;2366;51.332;6.610;2023-04-25T05:39:25;12.32;;;3.33;;
4704;SDS011;2366;51.332;6.610;2023-04-25T05:41:51;8.47;;;3.53;;
4704;SDS011;2366;51.332;6.610;2023-04-25T05:44:17;8.13;;;4.30;;
4704;SDS011;2366;51.332;6.610;2023-04-25T05:46:42;5.90;;;3.00;;
4704;SDS011;2366;51.332;6.610;2023-04-25T05:49:08;12.33;;;2.90;;
4704;SDS011;2366;51.332;6.610;2023-04-25T05:51:33;7.50;;;3.30;;
4704;SDS011;2366;51.332;6.610;2023-04-25T05:53:59;13.33;;;4.10;;
4704;SDS011;2366;51.332;6.610;2023-04-25T05:56:24;16.70;;;3.93;;
4704;SDS011;2366;51.332;6.610;2023-04-25T05:58:50;7.33;;;2.70;;
4704;SDS011;2366;51.332;6.610;2023-04-25T06:01:15;4.13;;;2.90;;
4704;SDS011;2366;51.332;6.610;2023-04-25T06:03:41;7.70;;;3.47;;
4704;SDS011;2366;51.332;6.610;2023-04-25T06:06:08;10.70;;;3.08;;
4704;SDS011;2366;51.332;6.610;2023-04-25T06:08:33;5.77;;;3.17;;
4704;SDS011;2366;51.332;6.610;2023-04-25T06:10:59;13.53;;;3.67;;
4704;SDS011;2366;51.332;6.610;2023-04-25T06:13:24;6.43;;;2.70;;
4704;SDS011;2366;51.332;6.610;2023-04-25T06:15:50;12.60;;;2.87;;
4704;SDS011;2366;51.332;6.610;2023-04-25T06:18:15;7.73;;;2.70;;
4704;SDS011;2366;51.332;6.610;2023-04-25T06:20:40;13.87;;;3.43;;
4704;SDS011;2366;51.332;6.610;2023-04-25T06:23:06;5.30;;;3.10;;
4704;SDS011;2366;51.332;6.610;2023-04-25T06:25:31;11.27;;;3.40;;
4704;SDS011;2366;51.332;6.610;2023-04-25T06:27:57;12.20;;;2.97;;
4704;SDS011;2366;51.332;6.610;2023-04-25T06:30:22;12.93;;;3.13;;
4704;SDS011;2366;51.332;6.610;2023-04-25T06:32:50;11.85;;;3.08;;
4704;SDS011;2366;51.332;6.610;2023-04-25T06:35:16;10.13;;;2.85;;
4704;SDS011;2366;51.332;6.610;2023-04-25T06:37:42;5.10;;;2.50;;
4704;SDS011;2366;51.332;6.610;2023-04-25T06:40:07;7.37;;;2.27;;
4704;SDS011;2366;51.332;6.610;2023-04-25T06:42:33;12.10;;;2.80;;
4704;SDS011;2366;51.332;6.610;2023-04-25T06:44:58;9.03;;;3.43;;
4704;SDS011;2366;51.332;6.610;2023-04-25T06:47:24;7.57;;;3.07;;
4704;SDS011;2366;51.332;6.610;2023-04-25T06:49:49;13.50;;;2.73;;
4704;SDS011;2366;51.332;6.610;2023-04-25T06:52:15;13.17;;;2.63;;
4704;SDS011;2366;51.332;6.610;2023-04-25T06:54:40;4.70;;;2.20;;
4704;SDS011;2366;51.332;6.610;2023-04-25T06:57:05;3.60;;;1.83;;
4704;SDS011;2366;51.332;6.610;2023-04-25T06:59:31;6.50;;;2.10;;
4704;SDS011;2366;51.332;6.610;2023-04-25T07:01:57;7.60;;;2.40;;
4704;SDS011;2366;51.332;6.610;2023-04-25T07:04:23;7.90;;;2.30;;
4704;SDS011;2366;51.332;6.610;2023-04-25T07:06:48;3.57;;;1.83;;
4704;SDS011;2366;51.332;6.610;2023-04-25T07:09:14;3.50;;;2.00;;
4704;SDS011;2366;51.332;6.610;2023-04-25T07:11:39;13.30;;;2.20;;
4704;SDS011;2366;51.332;6.610;2023-04-25T07:14:05;7.30;;;3.07;;
4704;SDS011;2366;51.332;6.610;2023-04-25T07:16:30;5.27;;;3.03;;
4704;SDS011;2366;51.332;6.610;2023-04-25T07:18:56;13.20;;;2.63;;
4704;SDS011;2366;51.332;6.610;2023-04-25T07:21:21;9.53;;;2.17;;
4704;SDS011;2366;51.332;6.610;2023-04-25T07:23:46;9.10;;;3.00;;
4704;SDS011;2366;51.332;6.610;2023-04-25T07:26:12;5.27;;;2.40;;
4704;SDS011;2366;51.332;6.610;2023-04-25T07:28:38;7.53;;;2.60;;
4704;SDS011;2366;51.332;6.610;2023-04-25T07:31:03;11.43;;;2.47;;
4704;SDS011;2366;51.332;6.610;2023-04-25T07:33:29;6.30;;;1.90;;
4704;SDS011;2366;51.332;6.610;2023-04-25T07:35:54;12.73;;;3.10;;
4704;SDS011;2366;51.332;6.610;2023-04-25T07:38:20;6.43;;;2.60;;
4704;SDS011;2366;51.332;6.610;2023-04-25T07:40:47;11.63;;;2.33;;
4704;SDS011;2366;51.332;6.610;2023-04-25T07:43:12;4.23;;;2.00;;
4704;SDS011;2366;51.332;6.610;2023-04-25T07:45:41;1.93;;;1.40;;
4704;SDS011;2366;51.332;6.610;2023-04-25T07:48:07;6.07;;;1.87;;
4704;SDS011;2366;51.332;6.610;2023-04-25T07:50:32;5.77;;;2.20;;
4704;SDS011;2366;51.332;6.610;2023-04-25T07:52:58;4.10;;;1.90;;
4704;SDS011;2366;51.332;6.610;2023-04-25T07:55:23;5.80;;;1.90;;
4704;SDS011;2366;51.332;6.610;2023-04-25T07:57:49;12.27;;;2.93;;
4704;SDS011;2366;51.332;6.610;2023-04-25T08:00:14;6.13;;;2.33;;
4704;SDS011;2366;51.332;6.610;2023-04-25T08:02:40;8.43;;;1.80;;
4704;SDS011;2366;51.332;6.610;2023-04-25T08:05:05;2.27;;;1.43;;
4704;SDS011;2366;51.332;6.610;2023-04-25T08:07:33;12.70;;;2.47;;
4704;SDS011;2366;51.332;6.610;2023-04-25T08:09:58;2.37;;;1.60;;
4704;SDS011;2366;51.332;6.610;2023-04-25T08:12:24;7.53;;;1.67;;
4704;SDS011;2366;51.332;6.610;2023-04-25T08:14:49;12.30;;;2.20;;
4704;SDS011;2366;51.332;6.610;2023-04-25T08:17:15;3.13;;;1.63;;
4704;SDS011;2366;51.332;6.610;2023-04-25T08:19:41;3.93;;;1.50;;
4704;SDS011;2366;51.332;6.610;2023-04-25T08:22:06;5.03;;;1.83;;
4704;SDS011;2366;51.332;6.610;2023-04-25T08:24:31;7.27;;;1.43;;
4704;SDS011;2366;51.332;6.610;2023-04-25T08:26:57;7.37;;;1.77;;
4704;SDS011;2366;51.332;6.610;2023-04-25T08:29:23;4.60;;;2.30;;
4704;SDS011;2366;51.332;6.610;2023-04-25T08:31:50;6.53;;;1.97;;
4704;SDS011;2366;51.332;6.610;2023-04-25T08:34:17;5.40;;;1.57;;
4704;SDS011;2366;51.332;6.610;2023-04-25T08:36:43;9.00;;;2.10;;
4704;SDS011;2366;51.332;6.610;2023-04-25T08:39:08;7.47;;;1.90;;
4704;SDS011;2366;51.332;6.610;2023-04-25T08:41:36;3.43;;;1.33;;
4704;SDS011;2366;51.332;6.610;2023-04-25T08:44:02;1.20;;;0.80;;
4704;SDS011;2366;51.332;6.610;2023-04-25T08:46:28;8.25;;;1.40;;
4704;SDS011;2366;51.332;6.610;2023-04-25T08:48:56;5.15;;;1.50;;
4704;SDS011;2366;51.332;6.610;2023-04-25T08:51:27;10.52;;;2.17;;
4704;SDS011;2366;51.332;6.610;2023-04-25T08:53:56;13.85;;;2.00;;
4704;SDS011;2366;51.332;6.610;2023-04-25T08:56:43;6.32;;;1.42;;
4704;SDS011;2366;51.332;6.610;2023-04-25T08:59:10;5.82;;;1.65;;
4704;SDS011;2366;51.332;6.610;2023-04-25T09:01:36;5.30;;;1.43;;
4704;SDS011;2366;51.332;6.610;2023-04-25T09:04:02;3.90;;;1.70;;
4704;SDS011;2366;51.332;6.610;2023-04-25T09:06:31;4.13;;;1.00;;
4704;SDS011;2366;51.332;6.610;2023-04-25T09:09:06;11.97;;;2.23;;
4704;SDS011;2366;51.332;6.610;2023-04-25T09:11:36;5.30;;;1.38;;
4704;SDS011;2366;51.332;6.610;2023-04-25T09:14:15;3.03;;;1.17;;
4704;SDS011;2366;51.332;6.610;2023-04-25T09:19:22;4.50;;;1.33;;
4704;SDS011;2366;51.332;6.610;2023-04-25T09:21:59;3.27;;;1.47;;
4704;SDS011;2366;51.332;6.610;2023-04-25T09:26:58;7.88;;;1.83;;
4704;SDS011;2366;51.332;6.610;2023-04-25T09:29:33;2.53;;;1.77;;
4704;SDS011;2366;51.332;6.610;2023-04-25T09:32:10;4.60;;;1.27;;
4704;SDS011;2366;51.332;6.610;2023-04-25T09:34:41;2.28;;;1.00;;
4704;SDS011;2366;51.332;6.610;2023-04-25T09:37:09;6.68;;;1.75;;
4704;SDS011;2366;51.332;6.610;2023-04-25T09:39:36;2.38;;;0.95;;
4704;SDS011;2366;51.332;6.610;2023-04-25T09:42:03;3.75;;;1.30;;
4704;SDS011;2366;51.332;6.610;2023-04-25T09:44:28;4.10;;;1.55;;
4704;SDS011;2366;51.332;6.610;2023-04-25T09:46:54;4.13;;;1.00;;
4704;SDS011;2366;51.332;6.610;2023-04-25T09:49:20;5.17;;;1.53;;
4704;SDS011;2366;51.332;6.610;2023-04-25T09:51:58;6.82;;;1.50;;
4704;SDS011;2366;51.332;6.610;2023-04-25T09:54:25;4.20;;;1.00;;
4704;SDS011;2366;51.332;6.610;2023-04-25T09:56:51;3.50;;;1.33;;
4704;SDS011;2366;51.332;6.610;2023-04-25T09:59:21;4.93;;;1.10;;
4704;SDS011;2366;51.332;6.610;2023-04-25T10:01:49;6.93;;;1.35;;
4704;SDS011;2366;51.332;6.610;2023-04-25T10:04:23;4.07;;;1.50;;
4704;SDS011;2366;51.332;6.610;2023-04-25T10:06:51;5.80;;;1.35;;
4704;SDS011;2366;51.332;6.610;2023-04-25T10:09:21;5.57;;;1.25;;
4704;SDS011;2366;51.332;6.610;2023-04-25T10:11:51;3.33;;;1.45;;
4704;SDS011;2366;51.332;6.610;2023-04-25T10:14:17;1.43;;;1.07;;
4704;SDS011;2366;51.332;6.610;2023-04-25T10:16:43;1.95;;;0.98;;
4704;SDS011;2366;51.332;6.610;2023-04-25T10:19:10;4.13;;;1.10;;
4704;SDS011;2366;51.332;6.610;2023-04-25T10:21:36;7.97;;;1.20;;
4704;SDS011;2366;51.332;6.610;2023-04-25T10:24:11;2.85;;;1.42;;
4704;SDS011;2366;51.332;6.610;2023-04-25T10:26:37;4.73;;;1.27;;
4704;SDS011;2366;51.332;6.610;2023-04-25T10:29:03;5.00;;;1.33;;
4704;SDS011;2366;51.332;6.610;2023-04-25T10:31:29;1.60;;;0.98;;
4704;SDS011;2366;51.332;6.610;2023-04-25T10:33:56;8.95;;;1.38;;
4704;SDS011;2366;51.332;6.610;2023-04-25T10:36:22;4.73;;;1.43;;
4704;SDS011;2366;51.332;6.610;2023-04-25T10:38:49;3.53;;;1.23;;
4704;SDS011;2366;51.332;6.610;2023-04-25T10:41:16;4.10;;;1.58;;
4704;SDS011;2366;51.332;6.610;2023-04-25T10:43:44;9.68;;;2.58;;
4704;SDS011;2366;51.332;6.610;2023-04-25T10:48:38;3.75;;;1.55;;
4704;SDS011;2366;51.332;6.610;2023-04-25T10:51:12;5.30;;;1.83;;
4704;SDS011;2366;51.332;6.610;2023-04-25T10:53:46;5.75;;;1.38;;
4704;SDS011;2366;51.332;6.610;2023-04-25T10:56:22;6.35;;;1.10;;
4704;SDS011;2366;51.332;6.610;2023-04-25T10:58:48;1.45;;;1.15;;
4704;SDS011;2366;51.332;6.610;2023-04-25T11:01:14;4.03;;;1.15;;
4704;SDS011;2366;51.332;6.610;2023-04-25T11:03:49;8.30;;;2.20;;
4704;SDS011;2366;51.332;6.610;2023-04-25T11:06:23;4.60;;;1.75;;
4704;SDS011;2366;51.332;6.610;2023-04-25T11:08:56;2.88;;;1.40;;
4704;SDS011;2366;51.332;6.610;2023-04-25T11:11:22;13.47;;;2.20;;
4704;SDS011;2366;51.332;6.610;2023-04-25T11:13:49;4.20;;;1.38;;
4704;SDS011;2366;51.332;6.610;2023-04-25T11:16:15;5.88;;;1.15;;
4704;SDS011;2366;51.332;6.610;2023-04-25T11:18:41;11.13;;;1.40;;
4704;SDS011;2366;51.332;6.610;2023-04-25T11:21:07;2.45;;;1.40;;
4704;SDS011;2366;51.332;6.610;2023-04-25T11:23:33;5.27;;;0.97;;
4704;SDS011;2366;51.332;6.610;2023-04-25T11:25:58;14.67;;;6.97;;
4704;SDS011;2366;51.332;6.610;2023-04-25T11:28:26;8.77;;;2.40;;
4704;SDS011;2366;51.332;6.610;2023-04-25T11:30:51;3.60;;;1.30;;
4704;SDS011;2366;51.332;6.610;2023-04-25T11:33:17;6.00;;;2.03;;
4704;SDS011;2366;51.332;6.610;2023-04-25T11:35:43;6.73;;;1.30;;
4704;SDS011;2366;51.332;6.610;2023-04-25T11:38:08;6.90;;;1.90;;
4704;SDS011;2366;51.332;6.610;2023-04-25T11:40:35;3.85;;;2.30;;
4704;SDS011;2366;51.332;6.610;2023-04-25T11:43:01;10.00;;;1.37;;
4704;SDS011;2366;51.332;6.610;2023-04-25T11:45:26;3.07;;;1.53;;
4704;SDS011;2366;51.332;6.610;2023-04-25T11:47:53;3.50;;;1.58;;
4704;SDS011;2366;51.332;6.610;2023-04-25T11:50:19;10.83;;;1.77;;
4704;SDS011;2366;51.332;6.610;2023-04-25T11:52:46;1.63;;;1.53;;
4704;SDS011;2366;51.332;6.610;2023-04-25T11:55:13;6.05;;;1.13;;
4704;SDS011;2366;51.332;6.610;2023-04-25T11:57:43;1.13;;;1.00;;
4704;SDS011;2366;51.332;6.610;2023-04-25T12:00:11;8.13;;;1.90;;
4704;SDS011;2366;51.332;6.610;2023-04-25T12:02:57;3.75;;;1.52;;
4704;SDS011;2366;51.332;6.610;2023-04-25T12:05:27;3.03;;;1.15;;
4704;SDS011;2366;51.332;6.610;2023-04-25T12:07:54;2.03;;;1.50;;
4704;SDS011;2366;51.332;6.610;2023-04-25T12:10:20;3.27;;;1.30;;
4704;SDS011;2366;51.332;6.610;2023-04-25T12:12:46;1.70;;;1.60;;
4704;SDS011;2366;51.332;6.610;2023-04-25T12:15:14;3.95;;;1.65;;
4704;SDS011;2366;51.332;6.610;2023-04-25T12:17:47;2.25;;;1.38;;
4704;SDS011;2366;51.332;6.610;2023-04-25T12:20:15;8.07;;;1.60;;
4704;SDS011;2366;51.332;6.610;2023-04-25T12:22:42;5.72;;;1.35;;
4704;SDS011;2366;51.332;6.610;2023-04-25T12:25:10;5.07;;;1.60;;
4704;SDS011;2366;51.332;6.610;2023-04-25T12:27:39;5.82;;;2.10;;
4704;SDS011;2366;51.332;6.610;2023-04-25T12:30:07;4.30;;;1.30;;
4704;SDS011;2366;51.332;6.610;2023-04-25T12:32:33;4.38;;;2.38;;
4704;SDS011;2366;51.332;6.610;2023-04-25T12:34:59;3.33;;;1.80;;
4704;SDS011;2366;51.332;6.610;2023-04-25T12:37:24;3.40;;;1.50;;
4704;SDS011;2366;51.332;6.610;2023-04-25T12:39:49;5.03;;;1.70;;
4704;SDS011;2366;51.332;6.610;2023-04-25T12:42:17;4.32;;;1.27;;
4704;SDS011;2366;51.332;6.610;2023-04-25T12:44:43;7.63;;;1.13;;
4704;SDS011;2366;51.332;6.610;2023-04-25T12:47:08;4.93;;;1.67;;
4704;SDS011;2366;51.332;6.610;2023-04-25T12:49:33;5.60;;;1.43;;
4704;SDS011;2366;51.332;6.610;2023-04-25T12:51:59;4.83;;;1.57;;
4704;SDS011;2366;51.332;6.610;2023-04-25T12:54:25;4.00;;;2.00;;
4704;SDS011;2366;51.332;6.610;2023-04-25T12:56:50;3.53;;;1.20;;
4704;SDS011;2366;51.332;6.610;2023-04-25T12:59:16;2.73;;;1.60;;
4704;SDS011;2366;51.332;6.610;2023-04-25T13:01:42;7.07;;;1.63;;
4704;SDS011;2366;51.332;6.610;2023-04-25T13:04:07;9.77;;;1.37;;
4704;SDS011;2366;51.332;6.610;2023-04-25T13:06:34;8.85;;;2.28;;
4704;SDS011;2366;51.332;6.610;2023-04-25T13:09:01;5.40;;;1.13;;
4704;SDS011;2366;51.332;6.610;2023-04-25T13:11:28;8.63;;;1.23;;
4704;SDS011;2366;51.332;6.610;2023-04-25T13:13:55;4.80;;;1.30;;
4704;SDS011;2366;51.332;6.610;2023-04-25T13:16:22;2.17;;;1.05;;
4704;SDS011;2366;51.332;6.610;2023-04-25T13:18:47;5.13;;;1.05;;
4704;SDS011;2366;51.332;6.610;2023-04-25T13:21:13;8.63;;;0.90;;
4704;SDS011;2366;51.332;6.610;2023-04-25T13:23:39;1.40;;;1.30;;
4704;SDS011;2366;51.332;6.610;2023-04-25T13:26:05;1.80;;;1.25;;
4704;SDS011;2366;51.332;6.610;2023-04-25T13:28:31;5.10;;;1.10;;
4704;SDS011;2366;51.332;6.610;2023-04-25T13:30:56;6.10;;;1.27;;
4704;SDS011;2366;51.332;6.610;2023-04-25T13:33:21;3.77;;;1.40;;
4704;SDS011;2366;51.332;6.610;2023-04-25T13:35:48;4.40;;;1.53;;
4704;SDS011;2366;51.332;6.610;2023-04-25T13:38:21;1.92;;;1.08;;
4704;SDS011;2366;51.332;6.610;2023-04-25T13:40:48;1.23;;;1.10;;
4704;SDS011;2366;51.332;6.610;2023-04-25T13:43:14;2.80;;;1.42;;
4704;SDS011;2366;51.332;6.610;2023-04-25T13:45:40;5.17;;;1.20;;
4704;SDS011;2366;51.332;6.610;2023-04-25T13:48:06;3.07;;;1.33;;
4704;SDS011;2366;51.332;6.610;2023-04-25T13:50:31;5.00;;;1.83;;
4704;SDS011;2366;51.332;6.610;2023-04-25T13:52:56;4.43;;;2.20;;
4704;SDS011;2366;51.332;6.610;2023-04-25T13:55:22;4.00;;;1.33;;
4704;SDS011;2366;51.332;6.610;2023-04-25T13:57:47;3.03;;;2.17;;
4704;SDS011;2366;51.332;6.610;2023-04-25T14:00:13;3.90;;;1.67;;
4704;SDS011;2366;51.332;6.610;2023-04-25T14:02:39;1.93;;;1.27;;
4704;SDS011;2366;51.332;6.610;2023-04-25T14:05:04;2.90;;;1.67;;
4704;SDS011;2366;51.332;6.610;2023-04-25T14:07:30;2.40;;;1.40;;
4704;SDS011;2366;51.332;6.610;2023-04-25T14:09:56;0.97;;;0.90;;
4704;SDS011;2366;51.332;6.610;2023-04-25T14:12:22;6.85;;;1.40;;
4704;SDS011;2366;51.332;6.610;2023-04-25T14:14:48;4.03;;;1.40;;
4704;SDS011;2366;51.332;6.610;2023-04-25T14:17:14;5.40;;;1.10;;
4704;SDS011;2366;51.332;6.610;2023-04-25T14:19:39;3.83;;;1.30;;
4704;SDS011;2366;51.332;6.610;2023-04-25T14:22:08;3.05;;;2.08;;
4704;SDS011;2366;51.332;6.610;2023-04-25T14:24:34;5.90;;;2.03;;
4704;SDS011;2366;51.332;6.610;2023-04-25T14:26:59;5.63;;;1.00;;
4704;SDS011;2366;51.332;6.610;2023-04-25T14:29:25;3.55;;;1.50;;
4704;SDS011;2366;51.332;6.610;2023-04-25T14:31:51;2.60;;;1.10;;
4704;SDS011;2366;51.332;6.610;2023-04-25T14:34:16;4.47;;;1.33;;
4704;SDS011;2366;51.332;6.610;2023-04-25T14:36:42;3.67;;;1.17;;
4704;SDS011;2366;51.332;6.610;2023-04-25T14:39:07;3.80;;;1.10;;
4704;SDS011;2366;51.332;6.610;2023-04-25T14:41:33;2.70;;;1.27;;
4704;SDS011;2366;51.332;6.610;2023-04-25T14:43:59;2.77;;;0.70;;
4704;SDS011;2366;51.332;6.610;2023-04-25T14:46:24;3.13;;;1.23;;
4704;SDS011;2366;51.332;6.610;2023-04-25T14:48:50;2.38;;;1.02;;
4704;SDS011;2366;51.332;6.610;2023-04-25T14:51:15;4.70;;;1.40;;
4704;SDS011;2366;51.332;6.610;2023-04-25T14:53:41;5.40;;;0.90;;
4704;SDS011;2366;51.332;6.610;2023-04-25T14:56:06;2.27;;;1.00;;
4704;SDS011;2366;51.332;6.610;2023-04-25T14:58:32;3.87;;;0.90;;
4704;SDS011;2366;51.332;6.610;2023-04-25T15:00:58;1.57;;;0.80;;
4704;SDS011;2366;51.332;6.610;2023-04-25T15:03:24;3.40;;;1.10;;
4704;SDS011;2366;51.332;6.610;2023-04-25T15:05:49;2.40;;;0.80;;
4704;SDS011;2366;51.332;6.610;2023-04-25T15:08:15;1.37;;;1.13;;
4704;SDS011;2366;51.332;6.610;2023-04-25T15:10:40;3.07;;;1.13;;
4704;SDS011;2366;51.332;6.610;2023-04-25T15:13:06;2.43;;;1.17;;
4704;SDS011;2366;51.332;6.610;2023-04-25T15:15:31;3.33;;;0.97;;